createdAt,value
2024-01-04T00:00:44.203Z,100.00
2024-01-04T00:03:11.162Z,100.00
2024-01-04T00:05:38.263Z,100.00
2024-01-04T00:08:05.474Z,100.00
2024-01-04T00:10:32.459Z,100.00
2024-01-04T00:12:59.349Z,100.00
2024-01-04T00:15:26.258Z,100.00
2024-01-04T00:17:53.433Z,100.00
2024-01-04T00:20:20.551Z,100.00
2024-01-04T00:22:48.142Z,100.00
2024-01-04T00:25:15.143Z,100.00
2024-01-04T00:27:42.102Z,100.00
2024-01-04T00:30:09.707Z,100.00
2024-01-04T00:32:36.917Z,100.00
2024-01-04T00:35:04.220Z,100.00
2024-01-04T00:37:31.283Z,100.00
2024-01-04T00:39:58.203Z,100.00
2024-01-04T00:42:25.092Z,100.00
2024-01-04T00:44:52.250Z,100.00
2024-01-04T00:47:19.201Z,100.00
2024-01-04T00:49:46.445Z,100.00
2024-01-04T00:52:13.477Z,100.00
2024-01-04T00:54:40.681Z,100.00
2024-01-04T00:57:07.658Z,100.00
2024-01-04T00:59:34.656Z,100.00
2024-01-04T01:02:01.551Z,100.00
2024-01-04T01:04:28.568Z,100.00
2024-01-04T01:06:55.495Z,100.00
2024-01-04T01:09:22.477Z,100.00
2024-01-04T01:11:49.414Z,100.00
2024-01-04T01:14:16.379Z,100.00
2024-01-04T01:16:43.295Z,100.00
2024-01-04T01:19:10.500Z,100.00
2024-01-04T01:21:37.592Z,100.00
2024-01-04T01:24:04.945Z,100.00
2024-01-04T01:26:32.023Z,100.00
2024-01-04T01:28:59.322Z,100.00
2024-01-04T01:31:26.223Z,100.00
2024-01-04T01:33:53.261Z,100.00
2024-01-04T01:36:20.418Z,100.00
2024-01-04T01:38:47.662Z,100.00
2024-01-04T01:41:14.646Z,100.00
2024-01-04T01:43:42.782Z,100.00
2024-01-04T01:46:09.755Z,100.00
2024-01-04T01:48:36.955Z,100.00
2024-01-04T01:51:04.521Z,100.00
2024-01-04T01:53:32.013Z,100.00
2024-01-04T01:55:59.463Z,100.00
2024-01-04T01:58:26.589Z,100.00
2024-01-04T02:00:54.015Z,100.00
2024-01-04T02:03:21.360Z,100.00
2024-01-04T02:05:48.698Z,100.00
2024-01-04T02:08:16.000Z,100.00
2024-01-04T02:10:43.243Z,100.00
2024-01-04T02:13:11.551Z,100.00
2024-01-04T02:15:38.716Z,100.00
2024-01-04T02:18:06.549Z,100.00
2024-01-04T02:20:34.211Z,100.00
2024-01-04T02:23:03.245Z,100.00
2024-01-04T02:25:34.066Z,100.00
2024-01-04T02:28:01.473Z,100.00
2024-01-04T02:30:29.089Z,100.00
2024-01-04T02:32:56.806Z,100.00
2024-01-04T02:35:24.324Z,100.00
2024-01-04T02:37:51.612Z,100.00
2024-01-04T02:40:18.967Z,100.00
2024-01-04T02:42:46.296Z,100.00
2024-01-04T02:45:14.857Z,100.00
2024-01-04T02:47:43.552Z,100.00
2024-01-04T02:50:13.059Z,100.00
2024-01-04T02:52:40.442Z,100.00
2024-01-04T02:55:08.191Z,100.00
2024-01-04T02:57:35.480Z,100.00
2024-01-04T03:00:02.898Z,100.00
2024-01-04T03:02:30.286Z,100.00
2024-01-04T03:04:57.720Z,100.00
2024-01-04T03:07:25.259Z,100.00
2024-01-04T03:09:53.016Z,100.00
2024-01-04T03:12:20.347Z,100.00
2024-01-04T03:14:47.689Z,100.00
2024-01-04T03:17:15.204Z,100.00
2024-01-04T03:19:42.653Z,100.00
2024-01-04T03:22:10.047Z,100.00
2024-01-04T03:24:37.353Z,100.00
2024-01-04T03:27:05.086Z,100.00
2024-01-04T03:29:32.383Z,100.00
2024-01-04T03:31:59.872Z,100.00
2024-01-04T03:34:30.322Z,100.00
2024-01-04T03:36:57.783Z,100.00
2024-01-04T03:39:24.895Z,100.00
2024-01-04T03:41:51.821Z,100.00
2024-01-04T03:44:18.956Z,100.00
2024-01-04T03:46:45.865Z,100.00
2024-01-04T03:49:13.132Z,100.00
2024-01-04T03:51:40.250Z,100.00
2024-01-04T03:54:07.626Z,100.00
2024-01-04T03:56:37.264Z,100.00
2024-01-04T03:59:04.721Z,100.00
2024-01-04T04:01:32.962Z,100.00
2024-01-04T04:04:02.091Z,100.00
2024-01-04T04:06:29.660Z,100.00
2024-01-04T04:08:57.381Z,100.00
2024-01-04T04:11:24.693Z,100.00
2024-01-04T04:13:51.813Z,100.00
2024-01-04T04:16:18.843Z,100.00
2024-01-04T04:18:45.995Z,100.00
2024-01-04T04:21:21.189Z,100.00
2024-01-04T04:23:51.395Z,100.00
2024-01-04T04:26:22.559Z,100.00
2024-01-04T04:28:50.460Z,100.00
2024-01-04T04:31:18.655Z,100.00
2024-01-04T04:33:47.320Z,100.00
2024-01-04T04:36:15.447Z,100.00
2024-01-04T04:38:45.932Z,100.00
2024-01-04T04:41:13.036Z,100.00
2024-01-04T04:43:39.973Z,100.00
2024-01-04T04:46:11.828Z,100.00
2024-01-04T04:48:39.587Z,100.00
2024-01-04T04:51:07.020Z,100.00
2024-01-04T04:53:34.494Z,100.00
2024-01-04T04:56:03.396Z,100.00
2024-01-04T04:58:33.759Z,100.00
2024-01-04T05:01:03.062Z,100.00
2024-01-04T05:03:30.744Z,100.00
2024-01-04T05:05:59.275Z,100.00
2024-01-04T05:08:26.605Z,100.00
2024-01-04T05:10:53.951Z,100.00
2024-01-04T05:13:21.333Z,100.00
2024-01-04T05:15:49.018Z,100.00
2024-01-04T05:18:16.655Z,100.00
2024-01-04T05:20:45.737Z,100.00
2024-01-04T05:23:13.229Z,100.00
2024-01-04T05:25:42.020Z,100.00
2024-01-04T05:28:09.618Z,100.00
2024-01-04T05:30:44.479Z,100.00
2024-01-04T05:33:13.079Z,100.00
2024-01-04T05:35:40.516Z,100.00
2024-01-04T05:38:07.909Z,100.00
2024-01-04T05:40:35.329Z,100.00
2024-01-04T05:43:02.569Z,100.00
2024-01-04T05:45:29.954Z,100.00
2024-01-04T05:47:57.383Z,100.00
2024-01-04T05:50:24.738Z,100.00
2024-01-04T05:52:52.306Z,100.00
2024-01-04T05:55:19.644Z,100.00
2024-01-04T05:57:47.036Z,100.00
2024-01-04T06:00:18.390Z,100.00
2024-01-04T06:02:46.661Z,100.00
2024-01-04T06:05:14.784Z,100.00
2024-01-04T06:07:42.167Z,100.00
2024-01-04T06:10:09.836Z,100.00
2024-01-04T06:12:37.171Z,100.00
2024-01-04T06:15:06.615Z,100.00
2024-01-04T06:17:34.108Z,100.00
2024-01-04T06:20:01.654Z,100.00
2024-01-04T06:22:29.320Z,100.00
2024-01-04T06:24:56.677Z,100.00
2024-01-04T06:27:24.157Z,100.00
2024-01-04T06:29:52.973Z,100.00
2024-01-04T06:32:21.657Z,100.00
2024-01-04T06:34:49.023Z,100.00
2024-01-04T06:37:16.570Z,100.00
2024-01-04T06:39:46.460Z,100.00
2024-01-04T06:42:16.301Z,100.00
2024-01-04T06:44:47.742Z,100.00
2024-01-04T06:47:16.506Z,100.00
2024-01-04T06:49:44.349Z,100.00
2024-01-04T06:52:12.049Z,100.00
2024-01-04T06:54:40.146Z,100.00
2024-01-04T06:57:08.255Z,100.00
2024-01-04T06:59:36.632Z,100.00
2024-01-04T07:02:07.331Z,100.00
2024-01-04T07:04:35.084Z,100.00
2024-01-04T07:07:02.956Z,100.00
2024-01-04T07:09:30.364Z,100.00
2024-01-04T07:11:58.270Z,100.00
2024-01-04T07:14:28.080Z,100.00
2024-01-04T07:16:55.909Z,100.00
2024-01-04T07:19:23.901Z,100.00
2024-01-04T07:21:52.448Z,100.00
2024-01-04T07:24:19.856Z,100.00
2024-01-04T07:26:47.253Z,100.00
2024-01-04T07:29:15.083Z,100.00
2024-01-04T07:31:42.621Z,100.00
2024-01-04T07:34:10.419Z,100.00
2024-01-04T07:36:39.970Z,100.00
2024-01-04T07:39:08.098Z,100.00
2024-01-04T07:41:38.242Z,100.00
2024-01-04T07:44:09.817Z,100.00
2024-01-04T07:46:37.366Z,100.00
2024-01-04T07:49:05.852Z,100.00
2024-01-04T07:51:33.264Z,100.00
2024-01-04T07:54:00.397Z,100.00
2024-01-04T07:56:27.304Z,100.00
2024-01-04T07:58:54.584Z,100.00
2024-01-04T08:01:21.694Z,100.00
2024-01-04T08:03:49.519Z,100.00
2024-01-04T08:06:16.836Z,100.00
2024-01-04T08:08:43.981Z,100.00
2024-01-04T08:11:11.022Z,100.00
2024-01-04T08:13:38.358Z,100.00
2024-01-04T08:16:05.670Z,100.00
2024-01-04T08:18:34.941Z,100.00
2024-01-04T08:21:03.664Z,100.00
2024-01-04T08:23:31.868Z,100.00
2024-01-04T08:25:58.888Z,100.00
2024-01-04T08:28:25.940Z,99.80
2024-01-04T08:30:53.592Z,100.00
2024-01-04T08:33:20.945Z,100.00
2024-01-04T08:35:48.150Z,100.00
2024-01-04T08:38:15.317Z,100.00
2024-01-04T08:40:42.273Z,100.00
2024-01-04T08:43:09.395Z,100.00
2024-01-04T08:45:37.324Z,100.00
2024-01-04T08:48:06.919Z,100.00
2024-01-04T08:50:34.027Z,100.00
2024-01-04T08:53:01.019Z,100.00
2024-01-04T08:55:28.016Z,100.00
2024-01-04T08:57:54.967Z,100.00
2024-01-04T09:00:22.121Z,100.00
2024-01-04T09:02:49.305Z,100.00
2024-01-04T09:05:16.328Z,100.00
2024-01-04T09:07:43.648Z,96.21
2024-01-04T09:10:10.726Z,93.80
2024-01-04T09:12:39.918Z,92.36
2024-01-04T09:15:09.109Z,89.65
2024-01-04T09:17:36.799Z,90.19
2024-01-04T09:20:04.899Z,92.37
2024-01-04T09:22:32.004Z,91.34
2024-01-04T09:24:58.972Z,92.64
2024-01-04T09:27:26.707Z,92.85
2024-01-04T09:29:54.184Z,93.50
2024-01-04T09:32:21.681Z,93.41
2024-01-04T09:34:51.250Z,96.62
2024-01-04T09:37:18.594Z,99.46
2024-01-04T09:39:45.997Z,100.00
2024-01-04T09:42:16.289Z,99.68
2024-01-04T09:44:43.809Z,98.77
2024-01-04T09:47:11.937Z,97.39
2024-01-04T09:49:40.598Z,97.65
2024-01-04T09:52:11.112Z,99.63
2024-01-04T09:54:40.665Z,100.00
2024-01-04T09:57:11.877Z,100.00
2024-01-04T09:59:38.977Z,100.00
2024-01-04T10:02:10.115Z,100.00
2024-01-04T10:04:38.747Z,100.00
2024-01-04T10:07:08.612Z,100.00
2024-01-04T10:09:55.121Z,100.00
2024-01-04T10:12:23.691Z,100.00
2024-01-04T10:14:51.138Z,100.00
2024-01-04T10:17:20.726Z,100.00
2024-01-04T10:19:48.607Z,100.00
2024-01-04T10:22:16.611Z,100.00
2024-01-04T10:24:44.139Z,100.00
2024-01-04T10:27:16.842Z,100.00
2024-01-04T10:29:46.796Z,100.00
2024-01-04T10:32:15.348Z,98.26
2024-01-04T10:34:43.454Z,100.00
2024-01-04T10:37:18.903Z,98.95
2024-01-04T10:40:04.730Z,99.28
2024-01-04T10:42:32.962Z,98.22
2024-01-04T10:45:00.770Z,93.30
2024-01-04T10:47:28.659Z,88.47
2024-01-04T10:50:01.833Z,85.93
2024-01-04T10:52:33.452Z,84.50
2024-01-04T10:55:04.709Z,85.69
2024-01-04T10:57:35.094Z,85.44
2024-01-04T11:00:08.107Z,85.67
2024-01-04T11:02:38.234Z,81.57
2024-01-04T11:05:08.048Z,79.95
2024-01-04T11:07:41.014Z,81.09
2024-01-04T11:10:10.894Z,81.23
2024-01-04T11:12:40.506Z,83.65
2024-01-04T11:15:13.563Z,79.78
2024-01-04T11:18:06.122Z,82.33
2024-01-04T11:20:43.892Z,77.12
2024-01-04T11:23:22.020Z,75.16
2024-01-04T11:26:33.948Z,73.42
2024-01-04T11:29:09.886Z,74.85
2024-01-04T11:31:44.408Z,75.82
2024-01-04T11:34:16.407Z,76.89
2024-01-04T11:36:44.138Z,78.34
2024-01-04T11:39:12.397Z,74.76
2024-01-04T11:41:40.229Z,72.93
2024-01-04T11:44:21.042Z,74.87
2024-01-04T11:46:59.991Z,77.12
2024-01-04T11:49:28.040Z,70.61
2024-01-04T11:51:57.786Z,71.05
2024-01-04T11:54:26.345Z,70.93
2024-01-04T11:56:54.017Z,68.59
2024-01-04T11:59:33.978Z,70.58
2024-01-04T12:02:02.140Z,71.51
2024-01-04T12:04:31.240Z,72.36
2024-01-04T12:07:02.620Z,69.70
2024-01-04T12:09:30.835Z,68.87
2024-01-04T12:11:59.221Z,63.58
2024-01-04T12:14:28.370Z,64.05
2024-01-04T12:16:56.217Z,62.74
2024-01-04T12:19:23.816Z,60.64
2024-01-04T12:21:52.515Z,57.36
2024-01-04T12:24:20.096Z,54.26
2024-01-04T12:26:48.310Z,51.73
2024-01-04T12:29:16.391Z,51.95
2024-01-04T12:31:47.268Z,52.06
2024-01-04T12:34:16.243Z,51.39
2024-01-04T12:36:43.883Z,49.52
2024-01-04T12:39:15.462Z,49.94
2024-01-04T12:41:47.906Z,48.76
2024-01-04T12:44:16.733Z,45.85
2024-01-04T12:46:45.853Z,46.77
2024-01-04T12:49:17.644Z,46.23
2024-01-04T12:51:47.943Z,45.35
2024-01-04T12:54:16.710Z,45.04
2024-01-04T12:56:44.441Z,43.22
2024-01-04T12:59:16.706Z,43.78
2024-01-04T13:01:44.123Z,43.23
2024-01-04T13:04:12.675Z,43.01
2024-01-04T13:06:40.183Z,42.78
2024-01-04T13:09:16.107Z,42.62
2024-01-04T13:11:44.013Z,42.64
2024-01-04T13:14:12.487Z,43.90
2024-01-04T13:16:40.899Z,44.84
2024-01-04T13:19:08.451Z,47.17
2024-01-04T13:21:35.885Z,49.35
2024-01-04T13:24:03.358Z,52.09
2024-01-04T13:26:30.735Z,54.55
2024-01-04T13:28:58.117Z,57.55
2024-01-04T13:31:25.535Z,60.02
2024-01-04T13:33:53.277Z,61.69
2024-01-04T13:36:22.098Z,61.50
2024-01-04T13:38:50.560Z,58.05
2024-01-04T13:41:20.589Z,55.00
2024-01-04T13:43:48.479Z,56.45
2024-01-04T13:46:16.460Z,57.36
2024-01-04T13:48:44.309Z,56.75
2024-01-04T13:51:12.215Z,57.02
2024-01-04T13:53:39.612Z,57.60
2024-01-04T13:56:08.348Z,58.63
2024-01-04T13:58:35.615Z,60.90
2024-01-04T14:01:04.569Z,63.23
2024-01-04T14:03:32.622Z,63.75
2024-01-04T14:06:01.277Z,65.86
2024-01-04T14:08:29.943Z,67.56
2024-01-04T14:10:57.727Z,69.47
2024-01-04T14:13:25.177Z,70.01
2024-01-04T14:15:52.683Z,71.35
2024-01-04T14:18:20.389Z,72.66
2024-01-04T14:20:51.367Z,73.99
2024-01-04T14:23:19.158Z,75.42
2024-01-04T14:25:46.633Z,76.23
2024-01-04T14:28:14.314Z,77.53
2024-01-04T14:30:41.788Z,78.90
2024-01-04T14:33:09.426Z,78.53
2024-01-04T14:35:37.974Z,79.53
2024-01-04T14:38:05.358Z,80.76
2024-01-04T14:40:32.934Z,81.00
2024-01-04T14:43:01.388Z,82.09
2024-01-04T14:45:29.631Z,82.72
2024-01-04T14:47:57.568Z,82.98
2024-01-04T14:50:28.422Z,84.01
2024-01-04T14:52:57.594Z,85.63
2024-01-04T14:55:27.675Z,87.11
2024-01-04T14:57:57.098Z,89.37
2024-01-04T15:00:28.161Z,90.19
2024-01-04T15:02:55.567Z,92.95
2024-01-04T15:05:22.934Z,93.40
2024-01-04T15:07:49.962Z,92.65
2024-01-04T15:10:16.975Z,91.79
2024-01-04T15:12:44.654Z,91.76
2024-01-04T15:15:23.177Z,92.79
2024-01-04T15:17:54.391Z,93.61
2024-01-04T15:20:23.015Z,93.82
2024-01-04T15:22:51.094Z,95.17
2024-01-04T15:25:19.478Z,95.30
2024-01-04T15:27:46.552Z,93.82
2024-01-04T15:30:17.398Z,93.56
2024-01-04T15:32:45.126Z,94.03
2024-01-04T15:35:14.150Z,93.09
2024-01-04T15:37:44.957Z,88.97
2024-01-04T15:40:13.302Z,92.44
2024-01-04T15:42:45.775Z,95.58
2024-01-04T15:45:17.058Z,93.92
2024-01-04T15:47:45.478Z,97.19
2024-01-04T15:50:14.975Z,100.00
2024-01-04T15:52:43.774Z,100.00
2024-01-04T15:55:11.016Z,100.00
2024-01-04T15:57:39.159Z,100.00
2024-01-04T16:00:06.822Z,100.00
2024-01-04T16:02:36.070Z,100.00
2024-01-04T16:05:27.314Z,100.00
2024-01-04T16:07:55.186Z,100.00
2024-01-04T16:10:26.422Z,100.00
2024-01-04T16:12:55.272Z,100.00
2024-01-04T16:15:24.154Z,100.00
2024-01-04T16:17:55.872Z,100.00
2024-01-04T16:20:30.947Z,100.00
2024-01-04T16:23:06.700Z,100.00
2024-01-04T16:25:36.228Z,100.00
2024-01-04T16:28:04.886Z,100.00
2024-01-04T16:30:36.338Z,100.00
2024-01-04T16:33:06.340Z,100.00
2024-01-04T16:35:33.568Z,100.00
2024-01-04T16:38:02.784Z,100.00
2024-01-04T16:40:29.925Z,100.00
2024-01-04T16:43:00.095Z,100.00
2024-01-04T16:45:28.481Z,100.00
2024-01-04T16:47:56.525Z,100.00
2024-01-04T16:50:27.409Z,100.00
2024-01-04T16:52:55.563Z,100.00
2024-01-04T16:55:25.002Z,100.00
2024-01-04T16:57:53.445Z,100.00
2024-01-04T17:00:24.817Z,100.00
2024-01-04T17:02:53.622Z,100.00
2024-01-04T17:05:22.039Z,100.00
2024-01-04T17:07:50.802Z,100.00
2024-01-04T17:10:22.111Z,100.00
2024-01-04T17:12:52.200Z,100.00
2024-01-04T17:15:20.837Z,100.00
2024-01-04T17:17:49.382Z,100.00
2024-01-04T17:20:19.850Z,100.00
2024-01-04T17:22:47.700Z,100.00
2024-01-04T17:25:15.182Z,100.00
2024-01-04T17:27:43.572Z,100.00
2024-01-04T17:30:11.597Z,100.00
2024-01-04T17:33:09.366Z,100.00
2024-01-04T17:35:40.312Z,100.00
2024-01-04T17:38:10.916Z,100.00
2024-01-04T17:40:38.851Z,100.00
2024-01-04T17:43:10.496Z,100.00
2024-01-04T17:45:41.738Z,100.00
2024-01-04T17:48:12.431Z,100.00
2024-01-04T17:50:41.869Z,100.00
2024-01-04T17:53:11.358Z,100.00
2024-01-04T17:55:39.562Z,100.00
2024-01-04T17:58:08.451Z,100.00
2024-01-04T18:00:36.576Z,100.00
2024-01-04T18:03:06.879Z,100.00
2024-01-04T18:05:35.826Z,100.00
2024-01-04T18:08:03.645Z,100.00
2024-01-04T18:10:32.661Z,100.00
2024-01-04T18:13:01.318Z,100.00
2024-01-04T18:15:31.153Z,100.00
2024-01-04T18:18:20.049Z,100.00
2024-01-04T18:20:47.406Z,100.00
2024-01-04T18:23:15.260Z,100.00
2024-01-04T18:25:49.075Z,100.00
2024-01-04T18:28:22.760Z,100.00
2024-01-04T18:30:52.794Z,98.43
2024-01-04T18:33:27.444Z,96.97
2024-01-04T18:35:58.583Z,96.84
2024-01-04T18:38:27.316Z,97.71
2024-01-04T18:40:56.394Z,94.32
2024-01-04T18:43:23.928Z,94.18
2024-01-04T18:46:13.607Z,92.74
2024-01-04T18:48:44.416Z,92.30
2024-01-04T18:51:13.389Z,92.07
2024-01-04T18:53:47.499Z,92.80
2024-01-04T18:56:18.396Z,92.43
2024-01-04T18:58:47.261Z,93.54
2024-01-04T19:01:16.159Z,93.48
2024-01-04T19:03:44.208Z,94.16
2024-01-04T19:06:12.228Z,93.91
2024-01-04T19:08:45.106Z,94.55
2024-01-04T19:11:12.550Z,94.92
2024-01-04T19:13:42.559Z,93.93
2024-01-04T19:16:14.602Z,94.06
2024-01-04T19:18:50.132Z,93.02
2024-01-04T19:21:20.860Z,92.61
2024-01-04T19:23:50.399Z,92.80
2024-01-04T19:26:18.789Z,92.26
2024-01-04T19:28:47.201Z,91.23
2024-01-04T19:31:15.554Z,90.90
2024-01-04T19:33:43.701Z,91.62
2024-01-04T19:36:11.683Z,91.26
2024-01-04T19:38:40.660Z,92.86
2024-01-04T19:41:13.862Z,92.64
2024-01-04T19:43:42.887Z,91.87
2024-01-04T19:46:11.905Z,92.39
2024-01-04T19:48:41.574Z,91.62
2024-01-04T19:51:11.858Z,90.28
2024-01-04T19:53:39.903Z,90.73
2024-01-04T19:56:09.387Z,91.71
2024-01-04T19:58:38.540Z,91.03
2024-01-04T20:01:07.875Z,91.28
2024-01-04T20:03:37.388Z,91.40
2024-01-04T20:06:07.896Z,90.54
2024-01-04T20:08:37.139Z,89.99
2024-01-04T20:11:26.770Z,89.60
2024-01-04T20:14:14.191Z,89.64
2024-01-04T20:16:43.070Z,90.64
2024-01-04T20:19:14.217Z,90.25
2024-01-04T20:21:43.550Z,89.92
2024-01-04T20:24:16.280Z,89.62
2024-01-04T20:26:44.550Z,89.85
2024-01-04T20:29:12.234Z,89.69
2024-01-04T20:31:40.368Z,90.65
2024-01-04T20:34:09.540Z,90.62
2024-01-04T20:36:36.920Z,91.21
2024-01-04T20:39:09.533Z,90.92
2024-01-04T20:41:37.060Z,90.70
2024-01-04T20:44:05.120Z,89.68
2024-01-04T20:46:32.320Z,90.64
2024-01-04T20:48:59.631Z,90.76
2024-01-04T20:51:29.568Z,90.44
2024-01-04T20:53:57.531Z,90.86
2024-01-04T20:56:25.279Z,89.63
2024-01-04T20:58:53.142Z,89.81
2024-01-04T21:01:41.884Z,90.12
2024-01-04T21:04:10.574Z,89.55
2024-01-04T21:06:37.902Z,90.58
2024-01-04T21:09:05.765Z,90.74
2024-01-04T21:11:33.591Z,90.98
2024-01-04T21:14:03.801Z,90.27
2024-01-04T21:16:31.242Z,90.71
2024-01-04T21:18:59.602Z,89.99
2024-01-04T21:21:27.332Z,89.58
2024-01-04T21:23:55.110Z,90.13
2024-01-04T21:26:23.028Z,90.10
2024-01-04T21:28:51.950Z,89.37
2024-01-04T21:31:21.351Z,89.91
2024-01-04T21:33:49.263Z,88.42
2024-01-04T21:36:19.162Z,87.90
2024-01-04T21:38:46.809Z,88.07
2024-01-04T21:41:35.469Z,87.04
2024-01-04T21:44:03.900Z,87.11
2024-01-04T21:46:31.146Z,85.78
2024-01-04T21:48:59.961Z,85.19
2024-01-04T21:51:27.886Z,85.66
2024-01-04T21:53:55.285Z,86.79
2024-01-04T21:56:27.511Z,85.78
2024-01-04T21:58:56.126Z,86.96
2024-01-04T22:01:46.606Z,86.00
2024-01-04T22:04:14.186Z,86.64
2024-01-04T22:06:46.038Z,86.53
2024-01-04T22:09:13.772Z,86.41
2024-01-04T22:11:43.194Z,86.44
2024-01-04T22:14:11.192Z,87.21
2024-01-04T22:16:41.007Z,87.37
2024-01-04T22:19:13.432Z,87.23
2024-01-04T22:21:41.253Z,87.20
2024-01-04T22:24:08.933Z,87.79
2024-01-04T22:26:36.925Z,87.42
2024-01-04T22:29:04.667Z,87.62
2024-01-04T22:31:31.932Z,86.94
2024-01-04T22:33:59.353Z,86.55
2024-01-04T22:36:27.081Z,86.91
2024-01-04T22:38:54.383Z,84.74
2024-01-04T22:41:21.705Z,85.59
2024-01-04T22:43:49.081Z,85.07
2024-01-04T22:46:16.395Z,84.45
2024-01-04T22:48:44.832Z,83.92
2024-01-04T22:51:12.033Z,84.18
2024-01-04T22:53:39.857Z,83.92
2024-01-04T22:56:07.597Z,84.55
2024-01-04T22:58:35.096Z,85.32
2024-01-04T23:01:05.070Z,83.96
2024-01-04T23:03:36.340Z,84.01
2024-01-04T23:06:06.726Z,84.06
2024-01-04T23:08:36.596Z,83.11
2024-01-04T23:11:04.492Z,82.80
2024-01-04T23:13:31.790Z,83.26
2024-01-04T23:15:59.232Z,83.06
2024-01-04T23:18:26.661Z,83.83
2024-01-04T23:20:53.999Z,82.94
2024-01-04T23:23:22.465Z,82.85
2024-01-04T23:25:49.972Z,81.63
2024-01-04T23:28:17.113Z,82.47
2024-01-04T23:30:44.289Z,82.94
2024-01-04T23:33:11.599Z,83.63
2024-01-04T23:35:39.732Z,83.61
2024-01-04T23:38:08.203Z,84.61
2024-01-04T23:40:36.227Z,85.58
2024-01-04T23:43:03.577Z,85.41
2024-01-04T23:45:30.747Z,85.53
2024-01-04T23:47:58.950Z,85.69
2024-01-04T23:50:26.198Z,87.24
2024-01-04T23:52:53.430Z,86.84
2024-01-04T23:55:20.739Z,87.44
2024-01-04T23:57:47.866Z,88.04
